Time;durP1;ratioP1;P1;durP2;ratioP2;P2;SDS_P1;SDS_P2;PMS_P1;PMS_P2;Temp;Humidity;BMP_temperature;BMP_pressure;BME280_temperature;BME280_humidity;BME280_pressure;Samples;Min_cycle;Max_cycle;Signal;HPM_P1;HPM_P2
2023/08/19 00:00:46;;;;;;;9.05;5.72;;;18.70;99.90;;;;;;5016451;28;20032;-77
2023/08/19 00:03:12;;;;;;;9.98;5.70;;;18.80;99.90;;;;;;5034252;28;20029;-78
2023/08/19 00:05:38;;;;;;;8.10;5.80;;;18.80;99.90;;;;;;5015785;28;20029;-77
2023/08/19 00:08:04;;;;;;;7.72;5.55;;;18.80;99.90;;;;;;5033564;28;20383;-79
2023/08/19 00:10:29;;;;;;;9.38;5.88;;;18.80;99.90;;;;;;5033721;28;20273;-78
2023/08/19 00:12:55;;;;;;;7.22;6.30;;;18.70;99.90;;;;;;5033722;28;20017;-77
2023/08/19 00:15:21;;;;;;;6.60;4.90;;;18.80;99.90;;;;;;5033954;28;20084;-78
2023/08/19 00:17:47;;;;;;;6.70;5.30;;;18.70;99.90;;;;;;5033507;28;20021;-78
2023/08/19 00:20:13;;;;;;;6.53;5.40;;;18.70;99.90;;;;;;5033334;28;20398;-77
2023/08/19 00:22:38;;;;;;;5.35;4.85;;;18.60;99.90;;;;;;5033173;28;20048;-77
2023/08/19 00:25:04;;;;;;;5.18;4.68;;;18.70;99.90;;;;;;5033052;28;20021;-77
2023/08/19 00:27:30;;;;;;;5.63;4.93;;;18.70;99.90;;;;;;5032970;28;20025;-79
2023/08/19 00:29:55;;;;;;;6.47;5.75;;;18.60;99.90;;;;;;5033326;28;20018;-78
2023/08/19 00:32:21;;;;;;;8.85;5.40;;;18.50;99.90;;;;;;5015573;28;20029;-77
2023/08/19 00:34:47;;;;;;;5.85;5.25;;;18.40;99.90;;;;;;5033556;28;20021;-77
2023/08/19 00:37:13;;;;;;;10.27;5.10;;;18.40;99.90;;;;;;5014995;28;20033;-77
2023/08/19 00:39:38;;;;;;;8.18;5.53;;;18.40;99.90;;;;;;5033206;28;20025;-77
2023/08/19 00:42:06;;;;;;;6.47;5.88;;;18.40;99.90;;;;;;5033137;28;20033;-77
2023/08/19 00:44:34;;;;;;;10.07;6.20;;;18.30;99.90;;;;;;5033360;28;20034;-77
2023/08/19 00:47:03;;;;;;;6.65;5.25;;;18.40;99.90;;;;;;5036887;28;20502;-77
2023/08/19 00:49:32;;;;;;;9.27;5.95;;;18.30;99.90;;;;;;5041570;28;20030;-77
2023/08/19 00:52:00;;;;;;;5.93;5.38;;;18.40;99.90;;;;;;5023822;28;20107;-79
2023/08/19 00:54:26;;;;;;;6.50;5.70;;;18.40;99.90;;;;;;5041379;28;20025;-78
2023/08/19 00:56:52;;;;;;;9.20;6.15;;;18.40;99.90;;;;;;5022635;28;20391;-78
2023/08/19 00:59:18;;;;;;;9.57;5.40;;;18.30;99.90;;;;;;5023435;28;20021;-78
2023/08/19 01:01:44;;;;;;;9.02;5.55;;;18.30;99.90;;;;;;5040897;28;20040;-77
2023/08/19 01:04:09;;;;;;;11.07;5.88;;;18.30;99.90;;;;;;5041177;28;20030;-77
2023/08/19 01:06:53;;;;;;;6.53;5.60;;;18.30;99.90;;;;;;5044982;28;20033;-77
2023/08/19 01:09:30;;;;;;;8.85;5.68;;;18.30;99.90;;;;;;5046067;28;20021;-78
2023/08/19 01:12:02;;;;;;;6.43;5.43;;;18.20;99.90;;;;;;5026810;28;20022;-78
2023/08/19 01:14:52;;;;;;;10.68;6.50;;;18.20;99.90;;;;;;5045848;28;20030;-78
2023/08/19 01:17:24;;;;;;;8.02;6.88;;;18.10;99.90;;;;;;5027038;28;20176;-78
2023/08/19 01:19:50;;;;;;;8.10;5.95;;;18.20;99.90;;;;;;5044328;28;20057;-78
2023/08/19 01:22:27;;;;;;;8.27;6.18;;;18.20;99.90;;;;;;5026882;28;20032;-78
2023/08/19 01:24:53;;;;;;;10.85;6.93;;;18.20;99.90;;;;;;5027176;28;20545;-77
2023/08/19 01:27:24;;;;;;;6.63;5.63;;;18.20;99.90;;;;;;5044670;28;20038;-77
2023/08/19 01:29:50;;;;;;;7.15;5.50;;;18.10;99.90;;;;;;5045217;28;20029;-77
2023/08/19 01:32:17;;;;;;;6.68;5.97;;;18.10;99.90;;;;;;5046332;28;20044;-78
2023/08/19 01:34:43;;;;;;;7.65;5.60;;;18.00;99.90;;;;;;5045586;28;20033;-78
2023/08/19 01:37:14;;;;;;;10.60;6.28;;;18.00;99.90;;;;;;5028178;28;20452;-78
2023/08/19 01:39:42;;;;;;;11.27;6.13;;;18.00;99.90;;;;;;5028967;28;20036;-77
2023/08/19 01:42:08;;;;;;;7.95;5.82;;;18.00;99.90;;;;;;5028999;28;20166;-78
2023/08/19 01:44:37;;;;;;;9.23;7.30;;;18.00;99.90;;;;;;5030213;28;20034;-78
2023/08/19 01:47:18;;;;;;;8.85;5.45;;;18.00;99.90;;;;;;5047957;28;20026;-77
2023/08/19 01:49:44;;;;;;;6.45;5.25;;;18.00;99.90;;;;;;5047959;28;20018;-78
2023/08/19 01:52:12;;;;;;;8.70;5.20;;;18.00;99.90;;;;;;5046975;28;20044;-78
2023/08/19 01:54:37;;;;;;;9.23;5.78;;;18.00;99.90;;;;;;5047530;28;20097;-79
2023/08/19 01:57:03;;;;;;;6.97;5.43;;;18.00;99.90;;;;;;5030133;28;20030;-79
2023/08/19 01:59:29;;;;;;;7.88;5.45;;;17.90;99.90;;;;;;5029702;28;20026;-79
2023/08/19 02:01:54;;;;;;;7.80;5.85;;;17.90;99.90;;;;;;5030707;28;20033;-79
2023/08/19 02:04:20;;;;;;;8.25;6.28;;;18.00;99.90;;;;;;5049216;28;20025;-78
2023/08/19 02:06:45;;;;;;;8.90;6.72;;;18.00;99.90;;;;;;5030776;28;20026;-78
2023/08/19 02:09:11;;;;;;;8.13;5.95;;;18.00;99.90;;;;;;5048842;28;20029;-78
2023/08/19 02:11:37;;;;;;;14.63;6.50;;;18.00;99.90;;;;;;5047417;28;20026;-79
2023/08/19 02:14:03;;;;;;;10.88;7.28;;;18.00;99.90;;;;;;5043156;28;20488;-79
2023/08/19 02:16:29;;;;;;;8.32;6.53;;;18.00;99.90;;;;;;5038940;28;20049;-79
2023/08/19 02:18:57;;;;;;;8.23;5.68;;;18.00;99.90;;;;;;5022298;28;20095;-78
2023/08/19 02:21:22;;;;;;;8.52;5.80;;;18.00;99.90;;;;;;5021737;28;20120;-78
2023/08/19 02:23:48;;;;;;;8.43;5.88;;;18.00;99.90;;;;;;5021246;28;20474;-78
2023/08/19 02:26:14;;;;;;;8.68;5.93;;;17.90;99.90;;;;;;5039380;28;20021;-78
2023/08/19 02:28:39;;;;;;;11.35;7.32;;;17.90;99.90;;;;;;5039850;28;20463;-79
2023/08/19 02:31:05;;;;;;;10.55;6.40;;;17.90;99.90;;;;;;5022228;28;20025;-79
2023/08/19 02:33:30;;;;;;;10.02;7.13;;;17.90;99.90;;;;;;5021764;28;20025;-78
2023/08/19 02:35:56;;;;;;;9.02;5.65;;;17.90;99.90;;;;;;5039106;28;20025;-78
2023/08/19 02:38:22;;;;;;;10.32;6.82;;;17.90;99.90;;;;;;5039136;28;20391;-78
2023/08/19 02:40:51;;;;;;;9.95;6.10;;;17.80;99.90;;;;;;5048114;22;20053;-75
2023/08/19 02:43:17;;;;;;;12.25;6.22;;;17.70;99.90;;;;;;5038187;28;20028;-77
2023/08/19 02:45:43;;;;;;;8.35;5.88;;;17.60;99.90;;;;;;5037652;28;20021;-76
2023/08/19 02:48:09;;;;;;;7.30;5.72;;;17.60;99.90;;;;;;5056279;28;20021;-77
2023/08/19 02:50:34;;;;;;;12.57;5.78;;;17.60;99.90;;;;;;5038438;28;20024;-74
2023/08/19 02:53:00;;;;;;;11.73;7.22;;;17.50;99.90;;;;;;5056276;28;20055;-77
2023/08/19 02:55:26;;;;;;;9.18;6.35;;;17.60;99.90;;;;;;5056239;28;20050;-76
2023/08/19 02:57:51;;;;;;;12.52;5.65;;;17.60;99.90;;;;;;5037981;28;20120;-77
2023/08/19 03:00:17;;;;;;;6.00;5.30;;;17.50;99.90;;;;;;5038054;28;20025;-75
2023/08/19 03:02:47;;;;;;;12.05;5.82;;;17.40;99.90;;;;;;5056091;28;20029;-77
2023/08/19 03:05:13;;;;;;;9.90;5.97;;;17.40;99.90;;;;;;5055779;28;20025;-75
2023/08/19 03:07:39;;;;;;;13.82;6.25;;;17.40;99.90;;;;;;5055514;28;20028;-76
2023/08/19 03:10:06;;;;;;;7.07;5.70;;;17.30;99.90;;;;;;5056188;28;20419;-75
2023/08/19 03:12:32;;;;;;;8.35;5.60;;;17.40;99.90;;;;;;5056165;28;20502;-76
2023/08/19 03:14:58;;;;;;;7.30;6.22;;;17.40;99.90;;;;;;5038764;28;20109;-77
2023/08/19 03:17:23;;;;;;;9.13;6.00;;;17.40;99.90;;;;;;5038162;28;20446;-76
2023/08/19 03:19:49;;;;;;;6.07;4.55;;;17.40;99.90;;;;;;5055920;28;20025;-77
2023/08/19 03:22:15;;;;;;;9.05;6.53;;;17.40;99.90;;;;;;5038383;28;20025;-77
2023/08/19 03:24:40;;;;;;;10.98;5.88;;;17.40;99.90;;;;;;5038539;28;20029;-77
2023/08/19 03:27:06;;;;;;;9.27;6.15;;;17.40;99.90;;;;;;5055518;28;20107;-73
2023/08/19 03:29:32;;;;;;;6.10;5.50;;;17.40;99.90;;;;;;5055493;28;20021;-77
2023/08/19 03:31:58;;;;;;;17.23;7.43;;;17.40;99.90;;;;;;5056363;28;20021;-75
2023/08/19 03:34:24;;;;;;;6.93;5.70;;;17.40;99.90;;;;;;5056191;28;20017;-75
2023/08/19 03:36:50;;;;;;;7.10;5.60;;;17.40;99.90;;;;;;5038088;28;20058;-76
2023/08/19 03:39:15;;;;;;;6.13;5.40;;;17.40;99.90;;;;;;5038094;28;20021;-76
2023/08/19 03:41:41;;;;;;;6.30;5.45;;;17.40;99.90;;;;;;5037626;28;20040;-77
2023/08/19 03:44:06;;;;;;;9.50;5.45;;;17.40;99.90;;;;;;5037566;28;20479;-76
2023/08/19 03:46:32;;;;;;;10.65;6.05;;;17.40;99.90;;;;;;5037055;28;20082;-76
2023/08/19 03:48:57;;;;;;;7.07;5.97;;;17.40;99.90;;;;;;5037631;28;20025;-77
2023/08/19 03:51:23;;;;;;;7.13;6.18;;;17.30;99.90;;;;;;5038120;28;20021;-73
2023/08/19 03:53:49;;;;;;;9.05;5.68;;;17.30;99.90;;;;;;5038208;28;20132;-78
2023/08/19 03:56:14;;;;;;;9.55;5.90;;;17.20;99.90;;;;;;5054893;28;20032;-75
2023/08/19 03:58:40;;;;;;;10.93;6.07;;;17.20;99.90;;;;;;5055001;28;20403;-76
2023/08/19 04:01:07;;;;;;;8.70;5.18;;;17.10;99.90;;;;;;5037079;28;20391;-75
2023/08/19 04:03:33;;;;;;;7.65;6.03;;;17.10;99.90;;;;;;5055967;28;20036;-76
2023/08/19 04:05:59;;;;;;;8.10;5.72;;;17.10;99.90;;;;;;5055170;28;20028;-78
2023/08/19 04:08:25;;;;;;;10.05;6.47;;;17.20;99.90;;;;;;5037580;28;20451;-76
2023/08/19 04:10:51;;;;;;;10.73;7.28;;;18.60;99.90;;;;;;5035372;28;20025;-76
2023/08/19 04:13:17;;;;;;;9.45;6.90;;;19.10;99.90;;;;;;5055327;28;20502;-76
2023/08/19 04:15:43;;;;;;;7.30;6.00;;;19.50;99.90;;;;;;5037218;28;20036;-77
2023/08/19 04:18:09;;;;;;;7.45;6.40;;;20.00;99.90;;;;;;5054468;28;20033;-76
2023/08/19 04:20:38;;;;;;;6.55;5.80;;;19.80;99.90;;;;;;5036862;28;20043;-77
2023/08/19 04:23:04;;;;;;;7.22;5.35;;;19.90;99.90;;;;;;5035824;28;20513;-77
2023/08/19 04:25:30;;;;;;;14.77;5.50;;;19.90;99.90;;;;;;5035371;28;20398;-76
2023/08/19 04:27:56;;;;;;;10.45;4.90;;;20.10;99.90;;;;;;5037833;28;20017;-76
2023/08/19 04:30:21;;;;;;;6.35;5.15;;;20.20;99.90;;;;;;5038288;28;20021;-78
2023/08/19 04:32:47;;;;;;;11.05;5.25;;;19.90;99.90;;;;;;5053035;28;20021;-75
2023/08/19 04:35:13;;;;;;;7.63;4.78;;;19.90;99.90;;;;;;5054301;28;20100;-75
2023/08/19 04:37:39;;;;;;;6.10;4.55;;;19.90;99.90;;;;;;5035588;28;20017;-75
2023/08/19 04:40:09;;;;;;;6.20;4.18;;;19.80;99.90;;;;;;5054657;28;20021;-75
2023/08/19 04:42:38;;;;;;;5.00;4.47;;;19.90;99.90;;;;;;5054099;28;20055;-75
2023/08/19 04:45:09;;;;;;;6.88;5.20;;;19.70;99.90;;;;;;5055412;28;20391;-75
2023/08/19 04:47:34;;;;;;;5.47;4.45;;;20.20;99.90;;;;;;5036507;28;20029;-75
2023/08/19 04:50:00;;;;;;;4.88;4.35;;;20.10;99.90;;;;;;5054683;28;20032;-75
2023/08/19 04:52:26;;;;;;;7.13;3.80;;;20.00;99.90;;;;;;5036488;28;20036;-76
2023/08/19 04:54:52;;;;;;;4.60;3.95;;;20.00;99.90;;;;;;5036994;28;20426;-76
2023/08/19 04:57:18;;;;;;;12.25;4.05;;;20.30;99.90;;;;;;5036922;28;20036;-77
2023/08/19 04:59:43;;;;;;;8.57;4.32;;;20.30;99.90;;;;;;5037997;28;20100;-76
2023/08/19 05:02:09;;;;;;;4.35;3.95;;;20.60;99.90;;;;;;5055155;28;20025;-76
2023/08/19 05:04:34;;;;;;;5.10;4.60;;;20.30;99.90;;;;;;5055459;28;20029;-76
2023/08/19 05:07:00;;;;;;;6.00;4.43;;;20.40;99.90;;;;;;5054872;28;20104;-76
2023/08/19 05:09:26;;;;;;;9.02;4.18;;;20.50;99.90;;;;;;5036376;28;20028;-76
2023/08/19 05:11:51;;;;;;;4.70;4.15;;;20.40;99.90;;;;;;5055567;28;20017;-76
2023/08/19 05:14:17;;;;;;;6.13;5.15;;;20.30;99.90;;;;;;5055154;28;20023;-76
2023/08/19 05:16:43;;;;;;;8.07;4.43;;;20.00;99.90;;;;;;5036700;28;20033;-76
2023/08/19 05:19:19;;;;;;;5.93;4.55;;;19.80;99.90;;;;;;5054830;28;20111;-75
2023/08/19 05:21:46;;;;;;;5.57;4.85;;;20.30;99.90;;;;;;5054993;28;20029;-76
2023/08/19 05:24:12;;;;;;;5.78;4.35;;;20.50;99.90;;;;;;5038028;28;20393;-75
2023/08/19 05:26:44;;;;;;;5.55;4.72;;;20.90;99.90;;;;;;5036525;28;20394;-76
2023/08/19 05:29:10;;;;;;;7.85;4.72;;;21.30;99.90;;;;;;5037697;28;20486;-76
2023/08/19 05:31:36;;;;;;;4.22;3.85;;;21.30;99.90;;;;;;5054873;28;20029;-76
2023/08/19 05:34:01;;;;;;;4.45;4.03;;;21.40;99.90;;;;;;5037259;28;20031;-75
2023/08/19 05:36:28;;;;;;;7.72;4.50;;;21.60;99.90;;;;;;5036607;28;20024;-75
2023/08/19 05:38:54;;;;;;;4.70;4.28;;;21.60;99.90;;;;;;5037282;28;20446;-77
2023/08/19 05:41:19;;;;;;;5.00;4.50;;;21.50;99.90;;;;;;5035220;28;20040;-75
2023/08/19 05:43:45;;;;;;;8.38;5.30;;;21.50;99.90;;;;;;5036545;28;20483;-76
2023/08/19 05:46:10;;;;;;;5.95;4.65;;;21.40;99.90;;;;;;5053669;28;20029;-75
2023/08/19 05:48:36;;;;;;;6.55;4.55;;;21.20;99.90;;;;;;5033991;28;20017;-75
2023/08/19 05:51:02;;;;;;;5.57;4.20;;;21.10;99.90;;;;;;5016809;28;20098;-76
2023/08/19 05:53:28;;;;;;;6.60;5.07;;;21.00;99.90;;;;;;5017534;28;20026;-76
2023/08/19 05:55:54;;;;;;;4.50;4.07;;;20.70;99.90;;;;;;5017981;28;20025;-75
2023/08/19 05:58:19;;;;;;;5.80;4.15;;;20.80;99.90;;;;;;5017943;28;20030;-74
2023/08/19 06:00:45;;;;;;;5.32;4.82;;;20.60;99.90;;;;;;5019226;28;20068;-76
2023/08/19 06:03:10;;;;;;;6.32;4.88;;;20.60;99.90;;;;;;5037346;28;20590;-76
2023/08/19 06:05:36;;;;;;;7.68;5.45;;;20.80;99.90;;;;;;5037479;28;20069;-76
2023/08/19 06:08:04;;;;;;;5.45;4.95;;;20.90;99.90;;;;;;5019680;28;20025;-76
2023/08/19 06:10:30;;;;;;;5.90;5.03;;;21.00;99.90;;;;;;5019316;28;20074;-75
2023/08/19 06:12:56;;;;;;;5.47;4.47;;;21.10;99.90;;;;;;5035656;28;20079;-75
2023/08/19 06:15:22;;;;;;;7.57;5.07;;;21.10;99.90;;;;;;5019141;28;20026;-75
2023/08/19 06:17:47;;;;;;;4.60;4.20;;;21.30;99.90;;;;;;5035406;28;20022;-74
2023/08/19 06:20:13;;;;;;;5.03;4.63;;;22.00;99.90;;;;;;5035843;28;20036;-77
2023/08/19 06:22:39;;;;;;;4.32;3.92;;;22.20;99.90;;;;;;5018067;28;20061;-77
2023/08/19 06:25:05;;;;;;;5.10;4.57;;;22.60;99.90;;;;;;5034623;28;20470;-76
2023/08/19 06:27:31;;;;;;;6.50;3.95;;;22.70;99.90;;;;;;5035190;28;20033;-76
2023/08/19 06:29:56;;;;;;;4.57;4.07;;;22.70;99.90;;;;;;5036739;28;20018;-78
2023/08/19 06:32:22;;;;;;;4.88;4.38;;;22.60;99.90;;;;;;5018539;28;20028;-76
2023/08/19 06:34:48;;;;;;;4.43;4.00;;;22.40;99.90;;;;;;5035703;28;20029;-75
2023/08/19 06:37:19;;;;;;;4.88;4.38;;;22.50;99.90;;;;;;5018273;28;20033;-76
2023/08/19 06:39:49;;;;;;;4.28;3.80;;;22.60;99.90;;;;;;5018597;28;20415;-77
2023/08/19 06:42:16;;;;;;;5.90;4.10;;;22.70;99.90;;;;;;5017159;28;20033;-76
2023/08/19 06:44:43;;;;;;;6.47;4.57;;;22.80;99.90;;;;;;5017807;28;20033;-76
2023/08/19 06:47:10;;;;;;;4.47;4.07;;;22.70;99.90;;;;;;5034743;28;20041;-75
2023/08/19 06:49:37;;;;;;;5.57;4.95;;;22.70;99.90;;;;;;5033203;28;20033;-76
2023/08/19 06:52:03;;;;;;;5.68;4.05;;;22.80;99.90;;;;;;5034594;28;20132;-75
2023/08/19 06:54:29;;;;;;;4.57;4.18;;;22.90;99.90;;;;;;5035631;28;20396;-76
2023/08/19 06:57:09;;;;;;;4.60;4.18;;;22.90;99.90;;;;;;5017700;28;20036;-76
2023/08/19 06:59:39;;;;;;;7.30;4.15;;;23.00;99.90;;;;;;5016968;28;20033;-75
2023/08/19 07:02:07;;;;;;;6.07;4.38;;;23.00;99.90;;;;;;5034248;28;20029;-75
2023/08/19 07:04:34;;;;;;;5.70;4.55;;;23.10;99.90;;;;;;5016043;28;20040;-75
2023/08/19 07:07:03;;;;;;;6.63;5.60;;;23.20;99.90;;;;;;5034338;28;20037;-77
2023/08/19 07:09:29;;;;;;;7.95;4.72;;;23.20;99.90;;;;;;5017740;28;20144;-76
2023/08/19 07:11:57;;;;;;;4.70;4.13;;;23.30;99.90;;;;;;5035649;28;20018;-76
2023/08/19 07:14:24;;;;;;;5.72;4.60;;;23.40;99.90;;;;;;5034709;28;20029;-76
2023/08/19 07:16:51;;;;;;;4.30;3.90;;;23.60;99.90;;;;;;5035721;28;20030;-77
2023/08/19 07:19:33;;;;;;;5.35;4.32;;;23.70;99.90;;;;;;5017208;28;20029;-75
2023/08/19 07:21:59;;;;;;;5.40;4.50;;;24.00;99.90;;;;;;5035288;28;20032;-75
2023/08/19 07:24:25;;;;;;;4.30;3.90;;;24.10;99.90;;;;;;5036009;28;20048;-77
2023/08/19 07:26:51;;;;;;;10.65;6.15;;;24.20;99.90;;;;;;5017574;28;20065;-77
2023/08/19 07:29:17;;;;;;;5.57;5.07;;;24.40;99.90;;;;;;5035789;28;20017;-76
2023/08/19 07:31:43;;;;;;;7.88;7.07;;;24.60;99.90;;;;;;5035428;28;20025;-76
2023/08/19 07:34:09;;;;;;;5.35;4.30;;;24.70;99.90;;;;;;5035441;28;20399;-76
2023/08/19 07:36:34;;;;;;;5.63;4.38;;;24.80;99.90;;;;;;5017888;28;20041;-76
2023/08/19 07:39:00;;;;;;;5.47;4.47;;;25.00;99.90;;;;;;5033944;28;20083;-76
2023/08/19 07:41:26;;;;;;;4.55;4.00;;;25.00;99.90;;;;;;5017544;28;20518;-78
2023/08/19 07:43:52;;;;;;;7.60;4.38;;;25.10;99.90;;;;;;5034886;28;20026;-76
2023/08/19 07:46:18;;;;;;;4.95;4.40;;;25.20;99.90;;;;;;5016784;28;20026;-78
2023/08/19 07:48:44;;;;;;;5.10;4.60;;;25.30;99.90;;;;;;5034093;28;20022;-76
2023/08/19 07:51:11;;;;;;;6.65;4.15;;;25.40;99.90;;;;;;5034430;28;20071;-75
2023/08/19 07:53:36;;;;;;;4.32;3.78;;;25.40;99.90;;;;;;5016825;28;20017;-78
2023/08/19 07:56:02;;;;;;;6.05;4.72;;;25.50;99.90;;;;;;5015736;28;20022;-76
2023/08/19 07:58:27;;;;;;;10.20;5.47;;;25.60;99.90;;;;;;5015944;28;20022;-76
2023/08/19 08:00:53;;;;;;;5.85;4.35;;;25.60;99.90;;;;;;5033563;28;20021;-75
2023/08/19 08:03:19;;;;;;;4.75;4.35;;;25.80;99.90;;;;;;5033934;28;20419;-75
2023/08/19 08:05:44;;;;;;;6.05;4.43;;;25.80;99.90;;;;;;5015989;28;20078;-76
2023/08/19 08:08:10;;;;;;;5.43;3.83;;;25.80;99.90;;;;;;5015958;28;20399;-75
2023/08/19 08:10:36;;;;;;;6.55;4.43;;;26.00;99.90;;;;;;5015801;28;20021;-75
2023/08/19 08:13:02;;;;;;;6.38;4.50;;;26.10;99.90;;;;;;5033889;28;20029;-76
2023/08/19 08:15:27;;;;;;;5.80;3.97;;;26.20;99.90;;;;;;5015861;28;20022;-77
2023/08/19 08:17:53;;;;;;;5.65;4.82;;;26.30;99.90;;;;;;5016704;28;20110;-75
2023/08/19 08:20:19;;;;;;;4.38;3.90;;;26.20;99.90;;;;;;5034602;28;20684;-76
2023/08/19 08:22:44;;;;;;;5.60;4.20;;;26.10;99.90;;;;;;5015469;28;20017;-75
2023/08/19 08:25:10;;;;;;;5.22;4.68;;;26.00;99.90;;;;;;5015220;28;20128;-74
2023/08/19 08:27:36;;;;;;;6.43;5.00;;;26.20;99.90;;;;;;5033471;28;20028;-76
2023/08/19 08:30:01;;;;;;;4.10;3.70;;;26.40;99.90;;;;;;5034607;28;20568;-75
2023/08/19 08:32:27;;;;;;;5.20;4.70;;;26.50;99.90;;;;;;5016014;28;20029;-74
2023/08/19 08:34:52;;;;;;;4.85;4.25;;;26.70;99.90;;;;;;5033296;28;20029;-76
2023/08/19 08:37:19;;;;;;;5.47;4.43;;;26.70;99.30;;;;;;5015375;28;20029;-76
2023/08/19 08:39:45;;;;;;;6.65;4.20;;;26.80;99.90;;;;;;5031470;28;20114;-75
2023/08/19 08:42:11;;;;;;;6.70;5.05;;;27.00;99.10;;;;;;5033160;28;20033;-76
2023/08/19 08:44:37;;;;;;;4.68;4.28;;;26.90;98.30;;;;;;5016339;28;20030;-75
2023/08/19 08:47:03;;;;;;;4.85;4.35;;;26.90;97.90;;;;;;5016752;28;20021;-73
2023/08/19 08:49:29;;;;;;;5.72;4.53;;;27.00;98.50;;;;;;5014978;28;20022;-76
2023/08/19 08:51:56;;;;;;;4.32;3.92;;;27.10;96.20;;;;;;5014580;28;20021;-76
2023/08/19 08:54:22;;;;;;;5.80;4.97;;;27.30;96.60;;;;;;5014808;28;20031;-75
2023/08/19 08:56:49;;;;;;;5.32;4.38;;;27.40;97.20;;;;;;5032343;28;20021;-75
2023/08/19 08:59:16;;;;;;;6.47;4.82;;;27.20;94.20;;;;;;5013757;28;20079;-76
2023/08/19 09:01:45;;;;;;;5.13;4.63;;;27.30;95.10;;;;;;5015191;28;20056;-76
2023/08/19 09:04:13;;;;;;;7.50;4.95;;;27.40;96.60;;;;;;5015572;28;20117;-77
2023/08/19 09:06:41;;;;;;;5.07;4.22;;;27.50;96.30;;;;;;5032379;28;20112;-77
2023/08/19 09:09:12;;;;;;;4.38;3.85;;;27.80;94.30;;;;;;5015596;28;20033;-77
2023/08/19 09:11:45;;;;;;;4.88;4.38;;;27.80;93.10;;;;;;5040101;28;20104;-76
2023/08/19 09:14:19;;;;;;;7.93;4.80;;;28.00;93.50;;;;;;5042536;28;20018;-77
2023/08/19 09:16:45;;;;;;;5.72;4.60;;;28.00;92.60;;;;;;5042148;28;20029;-76
2023/08/19 09:19:11;;;;;;;6.47;4.88;;;28.20;93.20;;;;;;5041522;28;20236;-76
2023/08/19 09:21:37;;;;;;;4.68;4.07;;;28.40;92.70;;;;;;5026850;28;20021;-75
2023/08/19 09:24:03;;;;;;;5.10;4.65;;;28.50;92.30;;;;;;5040471;28;20399;-76
2023/08/19 09:26:29;;;;;;;4.80;4.35;;;28.60;91.70;;;;;;5026619;28;20103;-75
2023/08/19 09:28:58;;;;;;;4.53;4.07;;;28.50;91.50;;;;;;5046953;28;20071;-76
2023/08/19 09:31:24;;;;;;;8.95;4.63;;;28.70;92.60;;;;;;5045627;28;20073;-75
2023/08/19 09:33:52;;;;;;;9.02;4.95;;;28.60;91.20;;;;;;5045824;28;20589;-76
2023/08/19 09:36:23;;;;;;;5.15;4.45;;;28.60;91.00;;;;;;5048841;28;20107;-77
2023/08/19 09:38:56;;;;;;;5.35;4.85;;;28.70;90.30;;;;;;5055715;28;20036;-75
2023/08/19 09:41:30;;;;;;;6.10;5.03;;;28.70;90.90;;;;;;5037024;28;20038;-75
2023/08/19 09:43:57;;;;;;;6.47;4.80;;;28.80;92.00;;;;;;5036623;28;20029;-78
2023/08/19 09:46:32;;;;;;;4.88;3.65;;;28.90;90.40;;;;;;5036664;28;20048;-75
2023/08/19 09:48:58;;;;;;;5.38;4.88;;;29.00;90.20;;;;;;5037026;28;20029;-74
2023/08/19 09:51:25;;;;;;;4.95;4.35;;;28.90;88.90;;;;;;5035798;28;20028;-76
2023/08/19 09:53:51;;;;;;;4.30;3.90;;;28.80;87.90;;;;;;5018913;28;20507;-75
2023/08/19 09:56:21;;;;;;;5.55;4.22;;;28.90;87.30;;;;;;5037568;28;20029;-76
2023/08/19 09:58:50;;;;;;;8.00;4.63;;;28.80;87.50;;;;;;5036412;28;20067;-76
2023/08/19 10:01:15;;;;;;;4.90;4.50;;;28.90;86.10;;;;;;5019144;28;20032;-77
2023/08/19 10:03:42;;;;;;;7.00;4.53;;;29.00;86.40;;;;;;5019443;28;20400;-76
2023/08/19 10:06:10;;;;;;;5.55;3.95;;;29.10;85.00;;;;;;5037274;28;20021;-77
2023/08/19 10:08:41;;;;;;;6.35;4.57;;;29.10;82.50;;;;;;5037235;28;20022;-77
2023/08/19 10:11:07;;;;;;;4.35;3.95;;;29.30;84.40;;;;;;5036675;28;20030;-76
2023/08/19 10:13:33;;;;;;;5.60;4.22;;;29.50;83.90;;;;;;5036325;28;20104;-77
2023/08/19 10:16:03;;;;;;;5.57;3.88;;;29.50;83.20;;;;;;5037183;28;20085;-77
2023/08/19 10:18:35;;;;;;;4.30;3.90;;;29.70;83.20;;;;;;5037526;28;20075;-76
2023/08/19 10:21:05;;;;;;;7.72;4.22;;;30.00;81.90;;;;;;5036516;28;20026;-77
2023/08/19 10:23:32;;;;;;;4.93;3.75;;;30.10;79.20;;;;;;5037580;28;20064;-75
2023/08/19 10:25:58;;;;;;;4.45;3.88;;;30.40;77.60;;;;;;5038269;28;20032;-76
2023/08/19 10:28:28;;;;;;;4.25;3.80;;;30.30;78.10;;;;;;5035262;28;20435;-76
2023/08/19 10:31:10;;;;;;;6.22;4.53;;;30.20;79.90;;;;;;5018379;28;20091;-75
2023/08/19 10:33:46;;;;;;;6.97;4.57;;;30.00;80.00;;;;;;5017459;28;20446;-78
2023/08/19 10:36:16;;;;;;;4.85;4.05;;;29.80;81.70;;;;;;5035743;28;20025;-76
2023/08/19 10:38:46;;;;;;;6.90;3.90;;;29.60;79.40;;;;;;5034947;28;20502;-74
2023/08/19 10:41:28;;;;;;;4.68;4.20;;;29.60;79.10;;;;;;5018218;28;20562;-79
2023/08/19 10:44:02;;;;;;;4.15;3.75;;;29.70;78.50;;;;;;5018640;28;20034;-76
2023/08/19 10:46:37;;;;;;;7.85;4.28;;;29.80;81.70;;;;;;5017347;28;20491;-75
2023/08/19 10:49:05;;;;;;;5.13;4.57;;;30.00;78.30;;;;;;5018878;28;20068;-78
2023/08/19 10:51:48;;;;;;;4.35;3.95;;;30.10;78.20;;;;;;5035138;28;20082;-76
2023/08/19 10:54:14;;;;;;;6.65;4.45;;;30.20;77.30;;;;;;5019274;28;20659;-79
2023/08/19 10:56:52;;;;;;;4.82;3.88;;;30.10;74.20;;;;;;5018162;28;20030;-75
2023/08/19 10:59:20;;;;;;;4.15;3.78;;;30.30;75.50;;;;;;5035578;28;20574;-74
2023/08/19 11:01:45;;;;;;;5.03;4.55;;;30.40;75.90;;;;;;5017454;28;20400;-77
2023/08/19 11:04:12;;;;;;;6.20;4.18;;;30.50;74.40;;;;;;5018975;28;20033;-77
2023/08/19 11:06:39;;;;;;;5.93;4.57;;;30.50;73.80;;;;;;5035013;28;20136;-75
2023/08/19 11:09:05;;;;;;;5.88;4.82;;;30.70;75.40;;;;;;5035785;28;20017;-77
2023/08/19 11:11:31;;;;;;;4.82;4.32;;;30.80;73.30;;;;;;5036468;28;20032;-76
2023/08/19 11:13:58;;;;;;;4.05;3.72;;;30.80;72.00;;;;;;5035104;28;20391;-76
2023/08/19 11:16:29;;;;;;;4.88;4.38;;;31.00;71.60;;;;;;5035439;28;20071;-76
2023/08/19 11:18:56;;;;;;;5.13;4.00;;;30.80;74.60;;;;;;5034986;28;20036;-76
2023/08/19 11:21:24;;;;;;;4.72;3.97;;;31.00;74.00;;;;;;5035169;28;20026;-75
2023/08/19 11:23:50;;;;;;;4.72;4.30;;;30.80;73.80;;;;;;5017403;28;20048;-77
2023/08/19 11:26:16;;;;;;;4.28;3.88;;;30.60;75.30;;;;;;5035467;28;20030;-75
2023/08/19 11:28:42;;;;;;;4.80;4.15;;;30.40;75.80;;;;;;5033965;28;20030;-77
2023/08/19 11:31:08;;;;;;;4.70;4.30;;;30.40;77.00;;;;;;5035955;28;20045;-77
2023/08/19 11:33:33;;;;;;;5.10;4.32;;;30.30;77.80;;;;;;5017594;28;20026;-75
2023/08/19 11:35:59;;;;;;;6.55;4.65;;;30.10;79.20;;;;;;5016536;28;20029;-78
2023/08/19 11:38:25;;;;;;;5.18;4.63;;;30.00;80.70;;;;;;5016393;28;20036;-75
2023/08/19 11:40:54;;;;;;;6.22;4.65;;;29.90;80.00;;;;;;5017159;28;20052;-76
2023/08/19 11:43:24;;;;;;;7.57;5.20;;;29.60;81.80;;;;;;5016212;28;20036;-76
2023/08/19 11:45:49;;;;;;;6.05;5.22;;;29.40;79.90;;;;;;5016328;28;20048;-76
2023/08/19 11:48:17;;;;;;;7.82;4.65;;;29.40;78.50;;;;;;5033327;28;20496;-76
2023/08/19 11:50:47;;;;;;;4.97;4.47;;;29.60;82.50;;;;;;5032698;28;20021;-76
2023/08/19 11:53:28;;;;;;;6.38;4.53;;;29.80;79.90;;;;;;5016646;28;20029;-77
2023/08/19 11:56:00;;;;;;;7.40;4.38;;;30.20;82.90;;;;;;5016002;28;20025;-76
2023/08/19 11:58:54;;;;;;;5.13;4.60;;;30.10;79.80;;;;;;5033918;28;20108;-75
2023/08/19 12:01:21;;;;;;;5.15;4.60;;;30.00;79.90;;;;;;5033476;28;20061;-77
2023/08/19 12:03:50;;;;;;;6.55;4.70;;;30.00;79.00;;;;;;5016792;28;20079;-76
2023/08/19 12:06:16;;;;;;;4.95;4.47;;;29.90;80.00;;;;;;5016532;28;20079;-77
2023/08/19 12:08:44;;;;;;;5.25;4.75;;;30.20;81.20;;;;;;5015337;28;20028;-75
2023/08/19 12:11:12;;;;;;;5.25;4.75;;;29.90;78.80;;;;;;5016062;28;20028;-75
2023/08/19 12:13:38;;;;;;;4.95;4.50;;;29.90;79.20;;;;;;5015727;28;20541;-77
2023/08/19 12:16:05;;;;;;;6.03;5.43;;;30.20;79.90;;;;;;5033624;28;20062;-76
2023/08/19 12:18:32;;;;;;;5.72;4.40;;;30.30;78.50;;;;;;5015941;28;20030;-76
2023/08/19 12:20:59;;;;;;;8.65;4.93;;;30.60;76.30;;;;;;5015199;28;20612;-78
2023/08/19 12:23:25;;;;;;;6.03;4.80;;;30.50;75.20;;;;;;5016697;28;20515;-75
2023/08/19 12:25:52;;;;;;;4.60;4.15;;;30.40;74.10;;;;;;5042320;28;20043;-75
2023/08/19 12:28:18;;;;;;;4.65;4.22;;;30.40;74.10;;;;;;5017627;28;20036;-75
2023/08/19 12:30:44;;;;;;;5.60;5.10;;;30.40;75.60;;;;;;5015245;28;20021;-75
2023/08/19 12:33:11;;;;;;;5.28;4.15;;;30.60;77.80;;;;;;5032903;28;20026;-73
2023/08/19 12:35:37;;;;;;;6.07;4.57;;;30.70;75.90;;;;;;5014563;28;20026;-76
2023/08/19 12:38:05;;;;;;;4.95;4.38;;;30.60;76.70;;;;;;5014485;28;20115;-76
2023/08/19 12:40:32;;;;;;;6.60;4.50;;;30.40;77.00;;;;;;5032039;28;20025;-77
2023/08/19 12:42:57;;;;;;;6.10;5.05;;;30.40;78.10;;;;;;5014772;28;20398;-77
2023/08/19 12:45:23;;;;;;;5.50;4.78;;;30.20;78.30;;;;;;5032637;28;20021;-75